sensor_id;sensor_type;location;lat;lon;timestamp;pressure;altitude;pressure_sealevel;temperature;humidity
17025;BME280;8629;42.496;25.620;2024-03-07T00:00:22;96508.59;;;5.75;72.52
17025;BME280;8629;42.496;25.620;2024-03-07T00:02:51;96514.16;;;5.83;72.83
17025;BME280;8629;42.496;25.620;2024-03-07T00:05:19;96513.88;;;5.80;72.71
17025;BME280;8629;42.496;25.620;2024-03-07T00:07:46;96511.81;;;5.87;72.43
17025;BME280;8629;42.496;25.620;2024-03-07T00:10:13;96445.66;;;5.56;72.13
17025;BME280;8629;42.496;25.620;2024-03-07T00:12:40;96466.31;;;5.70;72.29
17025;BME280;8629;42.496;25.620;2024-03-07T00:15:10;96503.41;;;5.95;71.16
17025;BME280;8629;42.496;25.620;2024-03-07T00:17:37;96475.88;;;5.81;70.90
17025;BME280;8629;42.496;25.620;2024-03-07T00:20:08;96499.41;;;5.87;71.42
17025;BME280;8629;42.496;25.620;2024-03-07T00:22:39;96490.16;;;5.85;71.62
17025;BME280;8629;42.496;25.620;2024-03-07T00:25:07;96495.91;;;5.77;71.71
17025;BME280;8629;42.496;25.620;2024-03-07T00:27:35;96483.47;;;5.72;71.67
17025;BME280;8629;42.496;25.620;2024-03-07T00:30:02;96467.56;;;5.57;71.85
17025;BME280;8629;42.496;25.620;2024-03-07T00:32:32;96457.25;;;5.50;72.05
17025;BME280;8629;42.496;25.620;2024-03-07T00:35:01;96488.53;;;5.79;71.91
17025;BME280;8629;42.496;25.620;2024-03-07T00:37:29;96481.09;;;5.66;72.47
17025;BME280;8629;42.496;25.620;2024-03-07T00:39:56;96481.69;;;5.78;72.08
17025;BME280;8629;42.496;25.620;2024-03-07T00:42:23;96488.81;;;5.77;72.43
17025;BME280;8629;42.496;25.620;2024-03-07T00:44:50;96477.19;;;5.83;72.37
17025;BME280;8629;42.496;25.620;2024-03-07T00:47:27;96474.59;;;5.88;72.14
17025;BME280;8629;42.496;25.620;2024-03-07T00:49:59;96448.56;;;5.55;72.69
17025;BME280;8629;42.496;25.620;2024-03-07T00:52:35;96441.16;;;5.52;72.99
17025;BME280;8629;42.496;25.620;2024-03-07T00:55:05;96473.47;;;5.79;72.85
17025;BME280;8629;42.496;25.620;2024-03-07T00:57:34;96445.19;;;5.70;72.70
17025;BME280;8629;42.496;25.620;2024-03-07T01:00:01;96460.75;;;5.66;73.46
17025;BME280;8629;42.496;25.620;2024-03-07T01:02:29;96470.78;;;5.69;73.36
17025;BME280;8629;42.496;25.620;2024-03-07T01:04:57;96456.06;;;5.83;72.45
17025;BME280;8629;42.496;25.620;2024-03-07T01:07:24;96454.47;;;5.77;72.73
17025;BME280;8629;42.496;25.620;2024-03-07T01:09:53;96449.63;;;5.59;73.26
17025;BME280;8629;42.496;25.620;2024-03-07T01:12:20;96401.13;;;5.18;73.55
17025;BME280;8629;42.496;25.620;2024-03-07T01:14:49;96372.81;;;5.03;73.45
17025;BME280;8629;42.496;25.620;2024-03-07T01:17:19;96465.00;;;5.72;73.00
17025;BME280;8629;42.496;25.620;2024-03-07T01:19:48;96464.97;;;5.62;73.62
17025;BME280;8629;42.496;25.620;2024-03-07T01:22:16;96457.78;;;5.57;73.56
17025;BME280;8629;42.496;25.620;2024-03-07T01:24:43;96459.41;;;5.58;73.43
17025;BME280;8629;42.496;25.620;2024-03-07T01:27:10;96404.56;;;5.18;73.80
17025;BME280;8629;42.496;25.620;2024-03-07T01:29:39;96470.66;;;5.38;73.53
17025;BME280;8629;42.496;25.620;2024-03-07T01:32:07;96473.84;;;5.46;73.98
17025;BME280;8629;42.496;25.620;2024-03-07T01:34:34;96459.53;;;5.31;73.89
17025;BME280;8629;42.496;25.620;2024-03-07T01:37:00;96472.81;;;5.47;73.38
17025;BME280;8629;42.496;25.620;2024-03-07T01:39:32;96459.53;;;5.36;73.28
17025;BME280;8629;42.496;25.620;2024-03-07T01:42:07;96452.38;;;5.27;73.49
17025;BME280;8629;42.496;25.620;2024-03-07T01:44:38;96473.88;;;5.51;73.33
17025;BME280;8629;42.496;25.620;2024-03-07T01:47:09;96455.03;;;5.32;73.10
17025;BME280;8629;42.496;25.620;2024-03-07T01:49:37;96450.53;;;5.27;73.15
17025;BME280;8629;42.496;25.620;2024-03-07T01:52:05;96477.81;;;5.48;73.22
17025;BME280;8629;42.496;25.620;2024-03-07T01:54:34;96448.66;;;5.23;73.35
17025;BME280;8629;42.496;25.620;2024-03-07T01:57:05;96468.31;;;5.42;73.23
17025;BME280;8629;42.496;25.620;2024-03-07T01:59:32;96474.69;;;5.51;73.19
17025;BME280;8629;42.496;25.620;2024-03-07T02:02:00;96469.13;;;5.53;72.66
17025;BME280;8629;42.496;25.620;2024-03-07T02:04:27;96449.25;;;5.35;73.11
17025;BME280;8629;42.496;25.620;2024-03-07T02:06:55;96464.19;;;5.61;72.88
17025;BME280;8629;42.496;25.620;2024-03-07T02:09:22;96436.88;;;5.40;72.98
17025;BME280;8629;42.496;25.620;2024-03-07T02:11:50;96461.00;;;5.59;72.77
17025;BME280;8629;42.496;25.620;2024-03-07T02:14:27;96430.81;;;5.40;72.82
17025;BME280;8629;42.496;25.620;2024-03-07T02:16:55;96456.63;;;5.33;73.86
17025;BME280;8629;42.496;25.620;2024-03-07T02:19:23;96443.63;;;5.21;73.80
17025;BME280;8629;42.496;25.620;2024-03-07T02:21:54;96463.47;;;5.34;73.76
17025;BME280;8629;42.496;25.620;2024-03-07T02:24:21;96447.84;;;5.22;73.63
17025;BME280;8629;42.496;25.620;2024-03-07T02:29:31;96411.88;;;5.06;73.40
17025;BME280;8629;42.496;25.620;2024-03-07T02:31:58;96429.44;;;5.32;73.31
17025;BME280;8629;42.496;25.620;2024-03-07T02:34:25;96447.72;;;5.49;72.86
17025;BME280;8629;42.496;25.620;2024-03-07T02:36:56;96458.06;;;5.56;73.14
17025;BME280;8629;42.496;25.620;2024-03-07T02:39:23;96449.81;;;5.42;73.33
17025;BME280;8629;42.496;25.620;2024-03-07T02:41:51;96434.22;;;5.35;73.29
17025;BME280;8629;42.496;25.620;2024-03-07T02:44:18;96456.09;;;5.31;73.60
17025;BME280;8629;42.496;25.620;2024-03-07T02:46:45;96422.44;;;5.11;73.92
17025;BME280;8629;42.496;25.620;2024-03-07T02:49:13;96457.09;;;5.25;74.15
17025;BME280;8629;42.496;25.620;2024-03-07T02:51:46;96447.56;;;5.19;73.85
17025;BME280;8629;42.496;25.620;2024-03-07T02:54:14;96435.91;;;5.09;74.21
17025;BME280;8629;42.496;25.620;2024-03-07T02:56:41;96452.13;;;5.28;74.14
17025;BME280;8629;42.496;25.620;2024-03-07T02:59:14;96460.81;;;5.29;73.97
17025;BME280;8629;42.496;25.620;2024-03-07T03:01:42;96442.63;;;5.27;74.01
17025;BME280;8629;42.496;25.620;2024-03-07T03:04:08;96451.63;;;5.36;73.66
17025;BME280;8629;42.496;25.620;2024-03-07T03:06:38;96415.56;;;5.05;73.91
17025;BME280;8629;42.496;25.620;2024-03-07T03:09:05;96447.63;;;5.29;74.07
17025;BME280;8629;42.496;25.620;2024-03-07T03:11:39;96440.47;;;5.19;73.90
17025;BME280;8629;42.496;25.620;2024-03-07T03:14:06;96442.53;;;5.12;74.21
17025;BME280;8629;42.496;25.620;2024-03-07T03:16:36;96428.78;;;5.10;74.09
17025;BME280;8629;42.496;25.620;2024-03-07T03:19:03;96445.50;;;5.26;74.04
17025;BME280;8629;42.496;25.620;2024-03-07T03:21:30;96374.22;;;4.73;73.96
17025;BME280;8629;42.496;25.620;2024-03-07T03:23:59;96443.59;;;5.16;73.75
17025;BME280;8629;42.496;25.620;2024-03-07T03:26:28;96425.28;;;4.99;74.04
17025;BME280;8629;42.496;25.620;2024-03-07T03:29:01;96388.22;;;4.79;73.66
17025;BME280;8629;42.496;25.620;2024-03-07T03:31:28;96455.72;;;5.12;73.95
17025;BME280;8629;42.496;25.620;2024-03-07T03:33:55;96469.41;;;5.09;73.95
17025;BME280;8629;42.496;25.620;2024-03-07T03:36:22;96398.56;;;4.85;73.13
17025;BME280;8629;42.496;25.620;2024-03-07T03:38:50;96448.31;;;5.14;72.85
17025;BME280;8629;42.496;25.620;2024-03-07T03:41:22;96456.47;;;5.07;73.05
17025;BME280;8629;42.496;25.620;2024-03-07T03:43:49;96457.28;;;5.13;73.07
17025;BME280;8629;42.496;25.620;2024-03-07T03:46:17;96433.03;;;5.16;72.33
17025;BME280;8629;42.496;25.620;2024-03-07T03:48:44;96433.94;;;4.89;73.51
17025;BME280;8629;42.496;25.620;2024-03-07T03:51:14;96449.94;;;5.15;72.75
17025;BME280;8629;42.496;25.620;2024-03-07T03:53:41;96455.44;;;5.13;72.94
17025;BME280;8629;42.496;25.620;2024-03-07T03:56:13;96402.56;;;4.88;72.59
17025;BME280;8629;42.496;25.620;2024-03-07T03:58:41;96448.13;;;5.26;72.61
17025;BME280;8629;42.496;25.620;2024-03-07T04:01:08;96428.25;;;5.08;72.56
17025;BME280;8629;42.496;25.620;2024-03-07T04:03:48;96454.47;;;5.25;72.34
17025;BME280;8629;42.496;25.620;2024-03-07T04:06:21;96456.28;;;5.19;72.71
17025;BME280;8629;42.496;25.620;2024-03-07T04:08:49;96450.72;;;5.15;72.53
17025;BME280;8629;42.496;25.620;2024-03-07T04:11:26;96457.28;;;5.08;72.96
17025;BME280;8629;42.496;25.620;2024-03-07T04:13:53;96457.50;;;5.06;72.83
17025;BME280;8629;42.496;25.620;2024-03-07T04:16:20;96432.75;;;5.07;72.86
17025;BME280;8629;42.496;25.620;2024-03-07T04:18:48;96436.91;;;5.03;72.42
17025;BME280;8629;42.496;25.620;2024-03-07T04:21:15;96376.25;;;4.61;73.06
17025;BME280;8629;42.496;25.620;2024-03-07T04:23:42;96459.13;;;5.07;72.69
17025;BME280;8629;42.496;25.620;2024-03-07T04:26:11;96429.63;;;4.78;73.13
17025;BME280;8629;42.496;25.620;2024-03-07T04:28:39;96457.47;;;5.01;72.78
17025;BME280;8629;42.496;25.620;2024-03-07T04:31:06;96451.66;;;4.99;72.99
17025;BME280;8629;42.496;25.620;2024-03-07T04:33:34;96429.72;;;4.88;72.94
17025;BME280;8629;42.496;25.620;2024-03-07T04:36:02;96445.84;;;4.97;72.53
17025;BME280;8629;42.496;25.620;2024-03-07T04:38:29;96456.69;;;5.01;72.51
17025;BME280;8629;42.496;25.620;2024-03-07T04:40:57;96403.16;;;4.63;73.07
17025;BME280;8629;42.496;25.620;2024-03-07T04:43:24;96425.28;;;4.62;73.25
17025;BME280;8629;42.496;25.620;2024-03-07T04:45:59;96394.53;;;4.73;72.76
17025;BME280;8629;42.496;25.620;2024-03-07T04:48:32;96413.63;;;4.90;72.62
17025;BME280;8629;42.496;25.620;2024-03-07T04:51:00;96381.38;;;4.78;72.61
17025;BME280;8629;42.496;25.620;2024-03-07T04:53:28;96431.56;;;4.88;73.03
17025;BME280;8629;42.496;25.620;2024-03-07T04:55:57;96400.63;;;4.78;72.74
17025;BME280;8629;42.496;25.620;2024-03-07T04:58:34;96450.06;;;4.98;73.51
17025;BME280;8629;42.496;25.620;2024-03-07T05:01:20;96448.69;;;4.90;73.04
17025;BME280;8629;42.496;25.620;2024-03-07T05:03:47;96378.72;;;4.40;73.30
17025;BME280;8629;42.496;25.620;2024-03-07T05:06:16;96443.41;;;4.90;73.03
17025;BME280;8629;42.496;25.620;2024-03-07T05:08:45;96451.09;;;4.92;73.43
17025;BME280;8629;42.496;25.620;2024-03-07T05:11:12;96469.28;;;4.94;72.84
17025;BME280;8629;42.496;25.620;2024-03-07T05:13:49;96361.25;;;4.29;72.52
17025;BME280;8629;42.496;25.620;2024-03-07T05:16:17;96414.97;;;4.60;72.48
17025;BME280;8629;42.496;25.620;2024-03-07T05:18:45;96402.50;;;4.46;72.22
17025;BME280;8629;42.496;25.620;2024-03-07T05:21:12;96453.78;;;4.65;72.31
17025;BME280;8629;42.496;25.620;2024-03-07T05:24:00;96434.19;;;4.56;72.12
17025;BME280;8629;42.496;25.620;2024-03-07T05:26:28;96465.28;;;4.86;72.37
17025;BME280;8629;42.496;25.620;2024-03-07T05:29:07;96451.94;;;4.65;71.68
17025;BME280;8629;42.496;25.620;2024-03-07T05:31:45;96401.56;;;4.30;71.53
17025;BME280;8629;42.496;25.620;2024-03-07T05:34:14;96434.25;;;4.61;71.74
17025;BME280;8629;42.496;25.620;2024-03-07T05:36:41;96412.50;;;4.49;71.55
17025;BME280;8629;42.496;25.620;2024-03-07T05:39:12;96473.63;;;4.73;72.31
17025;BME280;8629;42.496;25.620;2024-03-07T05:41:41;96423.03;;;4.44;72.49
17025;BME280;8629;42.496;25.620;2024-03-07T05:44:28;96467.25;;;4.69;72.44
17025;BME280;8629;42.496;25.620;2024-03-07T05:47:05;96449.50;;;4.59;72.03
17025;BME280;8629;42.496;25.620;2024-03-07T05:49:36;96432.41;;;4.61;71.44
17025;BME280;8629;42.496;25.620;2024-03-07T05:52:04;96470.81;;;4.84;72.10
17025;BME280;8629;42.496;25.620;2024-03-07T05:54:36;96462.03;;;4.74;71.51
17025;BME280;8629;42.496;25.620;2024-03-07T05:57:07;96472.69;;;4.89;71.41
17025;BME280;8629;42.496;25.620;2024-03-07T05:59:51;96454.69;;;4.81;71.74
17025;BME280;8629;42.496;25.620;2024-03-07T06:02:42;96480.91;;;4.93;71.70
17025;BME280;8629;42.496;25.620;2024-03-07T06:05:12;96470.75;;;4.79;72.29
17025;BME280;8629;42.496;25.620;2024-03-07T06:07:40;96430.13;;;4.75;72.33
17025;BME280;8629;42.496;25.620;2024-03-07T06:10:12;96479.22;;;4.81;72.24
17025;BME280;8629;42.496;25.620;2024-03-07T06:12:51;96479.56;;;4.90;72.47
17025;BME280;8629;42.496;25.620;2024-03-07T06:15:33;96489.34;;;4.95;72.96
17025;BME280;8629;42.496;25.620;2024-03-07T06:18:02;96446.88;;;4.59;72.80
17025;BME280;8629;42.496;25.620;2024-03-07T06:20:29;96467.03;;;4.75;72.98
17025;BME280;8629;42.496;25.620;2024-03-07T06:23:04;96439.16;;;4.52;72.79
17025;BME280;8629;42.496;25.620;2024-03-07T06:25:38;96470.72;;;4.74;72.95
17025;BME280;8629;42.496;25.620;2024-03-07T06:28:13;96425.16;;;4.47;72.24
17025;BME280;8629;42.496;25.620;2024-03-07T06:30:41;96436.28;;;4.54;72.53
17025;BME280;8629;42.496;25.620;2024-03-07T06:33:14;96475.53;;;4.82;72.81
17025;BME280;8629;42.496;25.620;2024-03-07T06:36:04;96482.16;;;4.85;72.40
17025;BME280;8629;42.496;25.620;2024-03-07T06:38:49;96470.94;;;4.68;72.59
17025;BME280;8629;42.496;25.620;2024-03-07T06:41:30;96493.03;;;4.94;72.66
17025;BME280;8629;42.496;25.620;2024-03-07T06:43:56;96488.38;;;4.74;72.59
17025;BME280;8629;42.496;25.620;2024-03-07T06:46:28;96478.31;;;4.65;72.64
17025;BME280;8629;42.496;25.620;2024-03-07T06:49:01;96444.72;;;4.56;72.21
17025;BME280;8629;42.496;25.620;2024-03-07T06:51:43;96496.25;;;4.69;72.79
17025;BME280;8629;42.496;25.620;2024-03-07T06:54:19;96478.97;;;4.51;72.90
17025;BME280;8629;42.496;25.620;2024-03-07T06:56:52;96488.78;;;4.60;73.66
17025;BME280;8629;42.496;25.620;2024-03-07T06:59:48;96499.44;;;4.71;74.00
17025;BME280;8629;42.496;25.620;2024-03-07T07:02:15;96505.34;;;4.56;74.51
17025;BME280;8629;42.496;25.620;2024-03-07T07:04:42;96502.47;;;4.57;74.88
17025;BME280;8629;42.496;25.620;2024-03-07T07:07:11;96500.38;;;4.59;75.15
17025;BME280;8629;42.496;25.620;2024-03-07T07:09:38;96496.47;;;4.62;75.97
17025;BME280;8629;42.496;25.620;2024-03-07T07:12:06;96490.41;;;4.61;76.24
17025;BME280;8629;42.496;25.620;2024-03-07T07:14:33;96493.22;;;4.55;77.79
17025;BME280;8629;42.496;25.620;2024-03-07T07:17:02;96502.69;;;4.51;78.50
17025;BME280;8629;42.496;25.620;2024-03-07T07:19:28;96495.44;;;4.41;79.18
17025;BME280;8629;42.496;25.620;2024-03-07T07:21:55;96499.75;;;4.47;79.85
17025;BME280;8629;42.496;25.620;2024-03-07T07:24:22;96495.38;;;4.31;80.01
17025;BME280;8629;42.496;25.620;2024-03-07T07:26:50;96474.75;;;4.23;80.56
17025;BME280;8629;42.496;25.620;2024-03-07T07:29:17;96498.09;;;4.41;80.34
17025;BME280;8629;42.496;25.620;2024-03-07T07:31:44;96488.41;;;4.20;81.26
17025;BME280;8629;42.496;25.620;2024-03-07T07:34:15;96499.28;;;4.28;81.08
17025;BME280;8629;42.496;25.620;2024-03-07T07:36:44;96494.66;;;4.13;82.30
17025;BME280;8629;42.496;25.620;2024-03-07T07:39:11;96495.28;;;4.26;82.29
17025;BME280;8629;42.496;25.620;2024-03-07T07:41:42;96474.50;;;4.02;82.05
17025;BME280;8629;42.496;25.620;2024-03-07T07:44:09;96448.44;;;4.01;82.35
17025;BME280;8629;42.496;25.620;2024-03-07T07:46:35;96496.16;;;4.31;82.06
17025;BME280;8629;42.496;25.620;2024-03-07T07:49:02;96497.00;;;4.37;82.12
17025;BME280;8629;42.496;25.620;2024-03-07T07:51:30;96489.88;;;4.37;81.65
17025;BME280;8629;42.496;25.620;2024-03-07T07:53:57;96497.50;;;4.34;82.66
17025;BME280;8629;42.496;25.620;2024-03-07T07:56:25;96442.03;;;3.91;82.89
17025;BME280;8629;42.496;25.620;2024-03-07T07:58:53;96499.44;;;4.44;82.36
17025;BME280;8629;42.496;25.620;2024-03-07T08:01:20;96498.19;;;4.24;82.88
17025;BME280;8629;42.496;25.620;2024-03-07T08:03:47;96476.81;;;4.21;83.49
17025;BME280;8629;42.496;25.620;2024-03-07T08:06:14;96500.50;;;4.43;83.51
17025;BME280;8629;42.496;25.620;2024-03-07T08:08:42;96519.84;;;4.53;82.66
17025;BME280;8629;42.496;25.620;2024-03-07T08:11:09;96513.84;;;4.63;82.95
17025;BME280;8629;42.496;25.620;2024-03-07T08:13:42;96500.69;;;4.36;83.09
17025;BME280;8629;42.496;25.620;2024-03-07T08:16:10;96515.91;;;4.56;83.13
17025;BME280;8629;42.496;25.620;2024-03-07T08:18:36;96455.22;;;4.19;83.36
17025;BME280;8629;42.496;25.620;2024-03-07T08:21:06;96507.75;;;4.57;83.44
17025;BME280;8629;42.496;25.620;2024-03-07T08:23:36;96489.47;;;4.46;82.78
17025;BME280;8629;42.496;25.620;2024-03-07T08:26:04;96493.63;;;4.41;83.56
17025;BME280;8629;42.496;25.620;2024-03-07T08:28:31;96528.44;;;4.71;83.62
17025;BME280;8629;42.496;25.620;2024-03-07T08:30:58;96484.34;;;4.34;83.45
17025;BME280;8629;42.496;25.620;2024-03-07T08:33:25;96544.13;;;4.60;83.26
17025;BME280;8629;42.496;25.620;2024-03-07T08:35:52;96546.91;;;4.49;83.91
17025;BME280;8629;42.496;25.620;2024-03-07T08:38:19;96508.69;;;4.19;83.85
17025;BME280;8629;42.496;25.620;2024-03-07T08:40:46;96558.34;;;4.32;84.02
17025;BME280;8629;42.496;25.620;2024-03-07T08:43:15;96559.53;;;4.41;83.66
17025;BME280;8629;42.496;25.620;2024-03-07T08:45:41;96562.19;;;4.47;84.10
17025;BME280;8629;42.496;25.620;2024-03-07T08:48:08;96572.78;;;4.52;83.60
17025;BME280;8629;42.496;25.620;2024-03-07T08:50:35;96569.31;;;4.46;83.69
17025;BME280;8629;42.496;25.620;2024-03-07T08:53:05;96569.91;;;4.53;83.90
17025;BME280;8629;42.496;25.620;2024-03-07T08:55:32;96555.47;;;4.34;83.56
17025;BME280;8629;42.496;25.620;2024-03-07T08:58:01;96562.63;;;4.38;84.27
17025;BME280;8629;42.496;25.620;2024-03-07T09:00:30;96548.25;;;4.24;84.47
17025;BME280;8629;42.496;25.620;2024-03-07T09:02:58;96523.22;;;4.00;84.50
17025;BME280;8629;42.496;25.620;2024-03-07T09:05:29;96569.22;;;4.41;84.19
17025;BME280;8629;42.496;25.620;2024-03-07T09:07:58;96573.78;;;4.24;83.78
17025;BME280;8629;42.496;25.620;2024-03-07T09:10:25;96517.06;;;4.16;83.72
17025;BME280;8629;42.496;25.620;2024-03-07T09:12:55;96567.69;;;4.45;84.29
17025;BME280;8629;42.496;25.620;2024-03-07T09:15:22;96574.94;;;4.55;83.07
17025;BME280;8629;42.496;25.620;2024-03-07T09:17:51;96571.78;;;4.31;83.69
17025;BME280;8629;42.496;25.620;2024-03-07T09:20:18;96554.78;;;4.44;83.79
17025;BME280;8629;42.496;25.620;2024-03-07T09:22:46;96538.63;;;4.13;83.20
17025;BME280;8629;42.496;25.620;2024-03-07T09:25:14;96568.41;;;4.35;83.57
17025;BME280;8629;42.496;25.620;2024-03-07T09:27:41;96570.72;;;4.10;83.63
17025;BME280;8629;42.496;25.620;2024-03-07T09:30:09;96545.75;;;4.12;84.23
17025;BME280;8629;42.496;25.620;2024-03-07T09:32:42;96564.31;;;4.23;83.37
17025;BME280;8629;42.496;25.620;2024-03-07T09:35:10;96547.31;;;4.13;83.44
17025;BME280;8629;42.496;25.620;2024-03-07T09:37:39;96572.75;;;4.25;82.03
17025;BME280;8629;42.496;25.620;2024-03-07T09:40:08;96571.41;;;4.22;82.51
17025;BME280;8629;42.496;25.620;2024-03-07T09:42:42;96572.06;;;4.12;82.90
17025;BME280;8629;42.496;25.620;2024-03-07T09:45:13;96575.31;;;4.20;82.68
17025;BME280;8629;42.496;25.620;2024-03-07T09:47:41;96572.69;;;4.20;83.07
17025;BME280;8629;42.496;25.620;2024-03-07T09:50:10;96557.50;;;4.05;82.96
17025;BME280;8629;42.496;25.620;2024-03-07T09:52:38;96569.75;;;4.16;83.35
17025;BME280;8629;42.496;25.620;2024-03-07T09:55:07;96526.44;;;3.85;84.25
17025;BME280;8629;42.496;25.620;2024-03-07T09:57:35;96580.41;;;4.26;84.21
17025;BME280;8629;42.496;25.620;2024-03-07T10:00:03;96572.56;;;4.09;83.54
17025;BME280;8629;42.496;25.620;2024-03-07T10:02:32;96574.63;;;4.29;84.95
17025;BME280;8629;42.496;25.620;2024-03-07T10:05:04;96592.47;;;4.44;84.48
17025;BME280;8629;42.496;25.620;2024-03-07T10:07:33;96542.13;;;4.19;83.78
17025;BME280;8629;42.496;25.620;2024-03-07T10:10:00;96583.16;;;4.58;83.79
17025;BME280;8629;42.496;25.620;2024-03-07T10:12:35;96583.16;;;4.58;83.64
17025;BME280;8629;42.496;25.620;2024-03-07T10:15:05;96588.72;;;4.62;84.09
17025;BME280;8629;42.496;25.620;2024-03-07T10:17:36;96536.50;;;4.37;83.16
17025;BME280;8629;42.496;25.620;2024-03-07T10:20:07;96596.94;;;4.65;82.75
17025;BME280;8629;42.496;25.620;2024-03-07T10:22:43;96581.25;;;4.54;83.54
17025;BME280;8629;42.496;25.620;2024-03-07T10:25:10;96588.81;;;4.72;83.15
17025;BME280;8629;42.496;25.620;2024-03-07T10:27:38;96580.09;;;4.72;83.02
17025;BME280;8629;42.496;25.620;2024-03-07T10:30:06;96587.72;;;4.68;83.44
17025;BME280;8629;42.496;25.620;2024-03-07T10:32:34;96579.88;;;4.73;83.36
17025;BME280;8629;42.496;25.620;2024-03-07T10:35:01;96516.53;;;4.41;83.14
17025;BME280;8629;42.496;25.620;2024-03-07T10:37:29;96596.84;;;4.82;82.73
17025;BME280;8629;42.496;25.620;2024-03-07T10:39:58;96589.38;;;4.74;82.95
17025;BME280;8629;42.496;25.620;2024-03-07T10:42:28;96592.16;;;4.89;82.53
17025;BME280;8629;42.496;25.620;2024-03-07T10:45:02;96568.84;;;4.76;82.20
17025;BME280;8629;42.496;25.620;2024-03-07T10:47:31;96578.81;;;4.74;83.18
17025;BME280;8629;42.496;25.620;2024-03-07T10:50:08;96586.25;;;4.77;83.58
17025;BME280;8629;42.496;25.620;2024-03-07T10:52:46;96554.69;;;4.60;82.62
17025;BME280;8629;42.496;25.620;2024-03-07T10:55:23;96596.69;;;4.94;82.70
17025;BME280;8629;42.496;25.620;2024-03-07T10:57:59;96588.72;;;4.89;82.70
17025;BME280;8629;42.496;25.620;2024-03-07T11:00:30;96587.72;;;4.95;83.04
17025;BME280;8629;42.496;25.620;2024-03-07T11:03:01;96574.66;;;5.10;81.87
17025;BME280;8629;42.496;25.620;2024-03-07T11:05:32;96521.91;;;4.51;82.41
17025;BME280;8629;42.496;25.620;2024-03-07T11:08:01;96569.72;;;4.87;82.71
17025;BME280;8629;42.496;25.620;2024-03-07T11:10:33;96557.38;;;4.93;83.76
17025;BME280;8629;42.496;25.620;2024-03-07T11:13:03;96565.81;;;4.95;84.14
17025;BME280;8629;42.496;25.620;2024-03-07T11:15:32;96570.88;;;4.96;83.67
17025;BME280;8629;42.496;25.620;2024-03-07T11:17:59;96575.34;;;4.96;83.27
17025;BME280;8629;42.496;25.620;2024-03-07T11:20:34;96576.81;;;4.86;82.94
17025;BME280;8629;42.496;25.620;2024-03-07T11:23:24;96574.97;;;4.87;83.27
17025;BME280;8629;42.496;25.620;2024-03-07T11:26:01;96561.75;;;4.82;83.16
17025;BME280;8629;42.496;25.620;2024-03-07T11:28:33;96547.03;;;4.86;82.74
17025;BME280;8629;42.496;25.620;2024-03-07T11:31:15;96571.97;;;5.00;82.97
17025;BME280;8629;42.496;25.620;2024-03-07T11:34:13;96568.44;;;4.89;83.09
17025;BME280;8629;42.496;25.620;2024-03-07T11:36:44;96567.19;;;4.97;82.70
17025;BME280;8629;42.496;25.620;2024-03-07T11:39:41;96570.59;;;4.98;83.13
17025;BME280;8629;42.496;25.620;2024-03-07T11:42:18;96569.50;;;4.94;83.55
17025;BME280;8629;42.496;25.620;2024-03-07T11:44:47;96568.84;;;5.08;83.59
17025;BME280;8629;42.496;25.620;2024-03-07T11:47:15;96558.00;;;5.05;84.39
17025;BME280;8629;42.496;25.620;2024-03-07T11:49:43;96566.41;;;5.02;84.11
17025;BME280;8629;42.496;25.620;2024-03-07T11:52:14;96562.50;;;5.04;84.39
17025;BME280;8629;42.496;25.620;2024-03-07T11:54:42;96567.69;;;4.99;84.73
17025;BME280;8629;42.496;25.620;2024-03-07T11:57:15;96564.53;;;4.97;84.97
17025;BME280;8629;42.496;25.620;2024-03-07T11:59:45;96557.59;;;4.91;84.52
17025;BME280;8629;42.496;25.620;2024-03-07T12:02:12;96555.44;;;4.83;85.24
17025;BME280;8629;42.496;25.620;2024-03-07T12:04:41;96563.00;;;4.74;85.27
17025;BME280;8629;42.496;25.620;2024-03-07T12:07:08;96563.94;;;4.90;85.71
17025;BME280;8629;42.496;25.620;2024-03-07T12:09:36;96539.56;;;4.78;85.12
17025;BME280;8629;42.496;25.620;2024-03-07T12:12:08;96558.56;;;4.80;84.68
17025;BME280;8629;42.496;25.620;2024-03-07T12:14:36;96554.78;;;4.71;84.76
17025;BME280;8629;42.496;25.620;2024-03-07T12:17:04;96536.69;;;4.52;85.34
17025;BME280;8629;42.496;25.620;2024-03-07T12:19:32;96567.38;;;4.63;85.73
17025;BME280;8629;42.496;25.620;2024-03-07T12:22:00;96559.47;;;4.63;86.27
17025;BME280;8629;42.496;25.620;2024-03-07T12:24:28;96565.78;;;4.62;86.50
17025;BME280;8629;42.496;25.620;2024-03-07T12:27:04;96561.31;;;4.63;85.98
17025;BME280;8629;42.496;25.620;2024-03-07T12:29:31;96556.19;;;4.51;86.70
17025;BME280;8629;42.496;25.620;2024-03-07T12:32:00;96565.81;;;4.68;87.03
17025;BME280;8629;42.496;25.620;2024-03-07T12:34:27;96569.50;;;4.66;86.84
17025;BME280;8629;42.496;25.620;2024-03-07T12:36:55;96567.72;;;4.72;86.35
17025;BME280;8629;42.496;25.620;2024-03-07T12:39:22;96551.16;;;4.77;86.59
17025;BME280;8629;42.496;25.620;2024-03-07T12:41:56;96538.38;;;4.63;86.28
17025;BME280;8629;42.496;25.620;2024-03-07T12:44:23;96542.59;;;4.64;86.76
17025;BME280;8629;42.496;25.620;2024-03-07T12:46:51;96532.50;;;4.56;86.32
17025;BME280;8629;42.496;25.620;2024-03-07T12:49:20;96556.81;;;4.63;86.43
17025;BME280;8629;42.496;25.620;2024-03-07T12:51:47;96570.34;;;4.72;86.10
17025;BME280;8629;42.496;25.620;2024-03-07T12:54:16;96556.38;;;4.72;86.70
17025;BME280;8629;42.496;25.620;2024-03-07T12:56:43;96553.81;;;4.77;86.54
17025;BME280;8629;42.496;25.620;2024-03-07T12:59:10;96501.31;;;4.48;86.67
17025;BME280;8629;42.496;25.620;2024-03-07T13:01:36;96554.63;;;4.82;86.21
17025;BME280;8629;42.496;25.620;2024-03-07T13:04:05;96549.09;;;4.84;85.98
17025;BME280;8629;42.496;25.620;2024-03-07T13:06:34;96546.75;;;4.87;85.55
17025;BME280;8629;42.496;25.620;2024-03-07T13:09:01;96539.28;;;4.74;86.32
17025;BME280;8629;42.496;25.620;2024-03-07T13:11:29;96561.94;;;4.75;86.29
17025;BME280;8629;42.496;25.620;2024-03-07T13:13:58;96546.69;;;4.77;86.49
17025;BME280;8629;42.496;25.620;2024-03-07T13:16:25;96543.66;;;4.63;86.14
17025;BME280;8629;42.496;25.620;2024-03-07T13:18:53;96546.69;;;4.77;86.85
17025;BME280;8629;42.496;25.620;2024-03-07T13:21:19;96519.91;;;4.63;86.14
17025;BME280;8629;42.496;25.620;2024-03-07T13:23:48;96530.72;;;4.62;86.77
17025;BME280;8629;42.496;25.620;2024-03-07T13:26:17;96499.31;;;4.33;86.58